Time;durP1;ratioP1;P1;durP2;ratioP2;P2;SDS_P1;SDS_P2;PMS_P1;PMS_P2;Temp;Humidity;BMP_temperature;BMP_pressure;BME280_temperature;BME280_humidity;BME280_pressure;Samples;Min_cycle;Max_cycle;Signal;HPM_P1;HPM_P2
2022/05/09 00:01:31;;;;;;;3.30;3.00;;;;;;;15.92;39.24;94953.16;4790920;29;20426;-79
2022/05/09 00:03:58;;;;;;;4.00;2.97;;;;;;;16.07;38.70;94961.50;4803929;29;20431;-80
2022/05/09 00:06:24;;;;;;;3.43;3.13;;;;;;;15.69;39.73;94953.72;4804486;29;20487;-79
2022/05/09 00:08:50;;;;;;;3.63;2.23;;;;;;;15.58;40.77;94957.91;4820842;29;20438;-80
2022/05/09 00:11:16;;;;;;;3.97;2.73;;;;;;;15.76;40.37;94960.63;4790091;30;20454;-80
2022/05/09 00:13:42;;;;;;;4.00;3.13;;;;;;;15.92;39.97;94953.94;4797261;29;20464;-80
2022/05/09 00:16:08;;;;;;;5.03;3.20;;;;;;;15.67;40.18;94956.59;4794682;30;20190;-80
2022/05/09 00:18:33;;;;;;;2.30;2.10;;;;;;;15.53;40.24;94963.03;4786342;30;20415;-80
2022/05/09 00:20:58;;;;;;;3.43;2.40;;;;;;;15.54;39.66;94962.00;4786379;30;20322;-80
2022/05/09 00:23:24;;;;;;;6.70;2.63;;;;;;;15.36;40.89;94960.94;4776473;30;20205;-80
2022/05/09 00:25:50;;;;;;;2.97;2.77;;;;;;;15.48;40.71;94957.59;4767433;30;20226;-80
2022/05/09 00:28:16;;;;;;;3.33;2.43;;;;;;;15.37;40.65;94965.19;4801346;30;20484;-80
2022/05/09 00:30:41;;;;;;;3.30;3.00;;;;;;;15.59;40.24;94960.34;4808573;29;20203;-80
2022/05/09 00:33:07;;;;;;;5.40;3.20;;;;;;;15.81;39.81;94959.94;4788678;30;20578;-80
2022/05/09 00:35:32;;;;;;;5.30;3.47;;;;;;;15.62;40.26;94967.00;4781425;30;20202;-80
2022/05/09 00:37:58;;;;;;;3.83;3.53;;;;;;;15.64;40.32;94964.16;4766877;30;20194;-80
2022/05/09 00:40:24;;;;;;;6.30;3.07;;;;;;;15.28;40.58;94969.13;4798810;29;20479;-81
2022/05/09 00:42:52;;;;;;;3.93;3.50;;;;;;;15.67;39.94;94969.81;4797591;29;20206;-81
2022/05/09 00:45:20;;;;;;;5.30;3.20;;;;;;;15.38;40.78;94974.69;4784713;30;20251;-80
2022/05/09 00:47:46;;;;;;;7.50;3.70;;;;;;;15.10;40.75;94967.25;4804024;29;20435;-80
2022/05/09 00:50:15;;;;;;;3.90;3.20;;;;;;;15.37;40.40;94977.56;4812743;29;20458;-81
2022/05/09 00:52:52;;;;;;;5.83;3.70;;;;;;;15.51;39.70;94965.88;4778551;30;20447;-80
2022/05/09 00:55:42;;;;;;;4.10;3.23;;;;;;;15.51;40.55;94978.25;4766612;30;20464;-80
2022/05/09 00:58:30;;;;;;;7.77;3.37;;;;;;;15.56;40.15;94975.78;4778049;30;20983;-80
2022/05/09 01:00:57;;;;;;;3.50;3.20;;;;;;;15.37;41.02;94981.00;4772819;30;20515;-80
2022/05/09 01:03:33;;;;;;;3.03;2.63;;;;;;;15.35;40.56;94974.34;4782738;30;20424;-80
2022/05/09 01:05:59;;;;;;;2.20;2.10;;;;;;;15.43;40.51;94982.78;4781966;29;20554;-79
2022/05/09 01:08:25;;;;;;;2.87;2.30;;;;;;;15.43;39.79;94977.50;4788654;30;20483;-80
2022/05/09 01:10:52;;;;;;;3.90;2.50;;;;;;;15.15;40.33;94980.56;4781170;30;20202;-81
2022/05/09 01:13:20;;;;;;;4.03;3.00;;;;;;;15.12;41.11;94977.53;4782421;30;20428;-80
2022/05/09 01:15:49;;;;;;;7.70;3.00;;;;;;;15.09;40.88;94972.72;4809388;29;20591;-81
2022/05/09 01:18:18;;;;;;;3.60;3.30;;;;;;;15.12;41.32;94978.38;4789665;30;20427;-80
2022/05/09 01:20:45;;;;;;;5.17;4.00;;;;;;;15.06;42.04;94979.22;4784630;30;20443;-81
2022/05/09 01:23:11;;;;;;;2.97;2.67;;;;;;;15.00;41.52;94974.81;4786345;29;20436;-80
2022/05/09 01:25:38;;;;;;;4.00;3.70;;;;;;;15.01;41.92;94974.59;4787574;29;20463;-80
2022/05/09 01:28:04;;;;;;;4.40;3.50;;;;;;;15.19;41.40;94970.41;4799576;30;20538;-80
2022/05/09 01:30:55;;;;;;;4.47;2.90;;;;;;;15.25;41.55;94974.81;4781079;30;20992;-80
2022/05/09 01:33:35;;;;;;;5.87;5.33;;;;;;;14.88;42.62;94972.03;4782521;30;20408;-79
2022/05/09 01:36:08;;;;;;;3.40;2.83;;;;;;;14.84;42.80;94976.13;4774292;30;20438;-80
2022/05/09 01:38:57;;;;;;;4.60;3.10;;;;;;;14.95;42.75;94982.53;4783661;29;20473;-79
2022/05/09 01:41:27;;;;;;;3.80;3.47;;;;;;;14.60;44.08;94973.22;4793093;29;20502;-80
2022/05/09 01:43:55;;;;;;;6.27;4.10;;;;;;;14.27;44.55;94978.63;4795075;29;20449;-80
2022/05/09 01:46:28;;;;;;;5.43;4.07;;;;;;;14.62;44.41;94976.44;4783737;30;20463;-81
2022/05/09 01:51:42;;;;;;;10.53;6.33;;;;;;;14.64;43.53;94986.78;4817762;29;20507;-79
2022/05/09 01:54:09;;;;;;;17.00;6.67;;;;;;;14.45;44.57;94986.66;4792293;29;20568;-80
2022/05/09 01:56:38;;;;;;;6.87;4.70;;;;;;;14.39;44.91;94987.47;4796353;29;20435;-80
2022/05/09 01:59:06;;;;;;;5.80;5.03;;;;;;;14.37;44.69;94983.44;4799966;29;20435;-80
2022/05/09 02:01:54;;;;;;;7.93;4.97;;;;;;;14.31;44.75;94979.81;4793780;29;20505;-80
2022/05/09 02:04:20;;;;;;;4.30;3.90;;;;;;;14.63;45.12;94977.28;4801761;29;20499;-80
2022/05/09 02:06:46;;;;;;;5.27;4.77;;;;;;;14.46;45.14;94976.91;4817564;29;20462;-81
2022/05/09 02:09:11;;;;;;;4.20;3.83;;;;;;;14.40;44.92;94983.03;4805057;29;20536;-81
2022/05/09 02:11:37;;;;;;;7.40;4.40;;;;;;;14.38;45.00;94979.78;4801338;29;20200;-80
2022/05/09 02:14:03;;;;;;;8.57;4.70;;;;;;;14.32;45.16;94981.41;4796249;29;20244;-80
2022/05/09 02:16:29;;;;;;;10.83;5.10;;;;;;;14.47;45.20;94982.97;4800006;29;20178;-81
2022/05/09 02:18:55;;;;;;;11.10;4.57;;;;;;;14.51;45.23;94990.25;4801010;29;20466;-80
2022/05/09 02:21:20;;;;;;;5.80;3.50;;;;;;;14.63;45.41;94983.34;4813772;29;20201;-80
2022/05/09 02:23:46;;;;;;;4.97;4.57;;;;;;;14.67;44.76;94993.47;4815757;29;20452;-80
2022/05/09 02:26:12;;;;;;;4.73;4.30;;;;;;;14.67;44.37;94988.19;4819340;29;20224;-80
2022/05/09 02:28:37;;;;;;;5.57;4.10;;;;;;;14.72;44.46;94990.97;4808079;29;20448;-80
2022/05/09 02:31:03;;;;;;;8.83;5.60;;;;;;;14.59;45.01;94997.94;4817400;29;20200;-80
2022/05/09 02:33:29;;;;;;;6.33;4.20;;;;;;;14.61;45.30;94993.28;4813510;29;20193;-80
2022/05/09 02:35:54;;;;;;;5.80;4.97;;;;;;;14.54;45.36;94995.09;4801662;29;20256;-80
2022/05/09 02:38:23;;;;;;;5.37;4.50;;;;;;;14.69;44.38;94991.41;4801087;29;20218;-81
2022/05/09 02:40:48;;;;;;;6.80;5.10;;;;;;;14.72;45.45;94996.25;4790977;29;20234;-80
2022/05/09 02:43:14;;;;;;;4.73;4.03;;;;;;;14.96;44.42;94992.88;4765474;30;20514;-80
2022/05/09 02:45:40;;;;;;;5.17;4.23;;;;;;;14.72;45.28;94996.25;4787075;29;20238;-79
2022/05/09 02:48:06;;;;;;;5.87;4.73;;;;;;;14.75;44.49;94998.47;4783315;30;20197;-80
2022/05/09 02:50:32;;;;;;;5.90;4.33;;;;;;;14.75;45.12;94990.56;4795705;29;20478;-79
2022/05/09 02:52:57;;;;;;;5.60;4.43;;;;;;;14.80;44.91;94994.19;4799222;29;20484;-80
2022/05/09 02:55:23;;;;;;;9.77;4.70;;;;;;;14.81;44.57;94989.72;4799511;29;20740;-81
2022/05/09 02:57:49;;;;;;;4.83;4.27;;;;;;;14.68;45.65;95001.13;4783036;30;20200;-80
2022/05/09 03:00:24;;;;;;;5.33;4.83;;;;;;;14.81;44.99;94998.41;4785723;29;20498;-80
2022/05/09 03:05:36;;;;;;;6.87;5.10;;;;;;;14.64;45.70;95008.69;4802981;29;20913;-80
2022/05/09 03:08:02;;;;;;;8.93;4.50;;;;;;;14.57;45.66;95010.53;4769569;30;20436;-80
2022/05/09 03:10:28;;;;;;;5.97;4.33;;;;;;;14.55;46.03;95014.34;4803300;30;20455;-80
2022/05/09 03:13:05;;;;;;;5.20;4.30;;;;;;;14.35;46.29;95023.13;4801790;29;20199;-80
2022/05/09 03:15:38;;;;;;;6.03;4.53;;;;;;;14.44;45.42;95016.63;4805444;30;20515;-79
2022/05/09 03:18:04;;;;;;;6.47;4.40;;;;;;;13.70;47.69;95030.16;4782710;30;20477;-80
2022/05/09 03:20:30;;;;;;;7.10;4.83;;;;;;;13.97;47.43;95023.03;4784608;30;20451;-80
2022/05/09 03:22:55;;;;;;;5.13;4.53;;;;;;;14.30;46.22;95022.13;4783244;30;20431;-80
2022/05/09 03:25:21;;;;;;;4.57;3.63;;;;;;;13.59;47.66;95034.22;4785627;29;20316;-80
2022/05/09 03:27:47;;;;;;;5.80;4.30;;;;;;;13.85;46.98;95033.41;4786375;30;20259;-80
2022/05/09 03:30:14;;;;;;;9.30;5.27;;;;;;;13.69;47.02;95036.44;4796691;29;20202;-80
2022/05/09 03:32:41;;;;;;;4.43;4.03;;;;;;;14.24;45.27;95031.69;4802402;29;20512;-81
2022/05/09 03:35:08;;;;;;;7.50;4.70;;;;;;;13.98;46.66;95032.53;4801944;29;20475;-81
2022/05/09 03:37:33;;;;;;;6.17;4.43;;;;;;;14.09;46.68;95031.09;4786259;30;20589;-81
2022/05/09 03:39:59;;;;;;;7.10;4.23;;;;;;;14.13;46.37;95032.31;4801719;29;20443;-81
2022/05/09 03:42:24;;;;;;;4.83;3.97;;;;;;;14.23;45.91;95035.34;4783146;29;20194;-80
2022/05/09 03:44:51;;;;;;;5.97;4.40;;;;;;;14.29;46.40;95033.69;4801789;29;20214;-79
2022/05/09 03:47:16;;;;;;;4.37;3.97;;;;;;;14.40;45.82;95038.31;4807831;29;20224;-80
2022/05/09 03:49:43;;;;;;;11.30;4.50;;;;;;;14.50;45.50;95030.78;4818745;29;20487;-80
2022/05/09 03:52:08;;;;;;;7.60;4.40;;;;;;;14.95;44.91;95028.16;4816090;29;20193;-80
2022/05/09 03:54:34;;;;;;;6.50;4.47;;;;;;;14.55;45.22;95028.34;4786765;30;20450;-81
2022/05/09 03:56:59;;;;;;;10.10;4.93;;;;;;;14.69;45.47;95030.94;4801719;29;20252;-80
2022/05/09 03:59:25;;;;;;;11.90;5.00;;;;;;;14.40;46.14;95030.44;4799999;29;20196;-80
2022/05/09 04:01:51;;;;;;;8.07;4.80;;;;;;;14.58;44.99;95027.94;4775923;30;20302;-80
2022/05/09 04:04:17;;;;;;;5.70;4.20;;;;;;;14.67;45.37;95033.78;4770713;29;20209;-80
2022/05/09 04:06:42;;;;;;;7.20;4.53;;;;;;;14.83;45.78;95027.19;4783359;30;20836;-80
2022/05/09 04:10:25;;;;;;;;;;;;;;;;;;;;;
2022/05/09 04:12:52;;;;;;;9.77;4.87;;;;;;;15.08;44.44;95029.09;4732514;29;20297;-80
2022/05/09 04:18:02;;;;;;;5.00;4.50;;;;;;;15.49;43.85;95030.44;4789639;29;20419;-80
2022/05/09 04:20:31;;;;;;;6.87;5.30;;;;;;;15.60;43.02;95035.00;4784259;30;20451;-80
2022/05/09 04:22:57;;;;;;;6.13;5.50;;;;;;;15.74;42.78;95033.09;4784797;30;20428;-80
2022/05/09 04:25:23;;;;;;;5.70;5.20;;;;;;;14.97;44.95;95036.66;4790384;30;21015;-80
2022/05/09 04:27:49;;;;;;;8.67;5.97;;;;;;;15.41;44.70;95031.50;4797413;29;20447;-80
2022/05/09 04:30:15;;;;;;;8.00;5.40;;;;;;;15.45;44.59;95032.69;4791009;29;20665;-79
2022/05/09 04:32:41;;;;;;;16.53;6.73;;;;;;;15.21;45.00;95031.63;4784434;30;20428;-80
2022/05/09 04:35:13;;;;;;;6.57;5.13;;;;;;;14.54;47.85;95045.13;4797488;29;20459;-80
2022/05/09 04:37:42;;;;;;;6.73;6.10;;;;;;;15.11;45.92;95041.84;4767124;30;20214;-80
2022/05/09 04:40:09;;;;;;;9.13;5.73;;;;;;;15.01;46.18;95045.75;4803088;29;20482;-80
2022/05/09 04:42:34;;;;;;;10.50;5.97;;;;;;;14.79;47.04;95052.34;4819095;29;20493;-79
2022/05/09 04:45:00;;;;;;;7.00;5.40;;;;;;;15.01;46.31;95051.03;4785431;30;20459;-80
2022/05/09 04:47:27;;;;;;;6.20;5.27;;;;;;;15.65;45.38;95053.66;4800288;29;20227;-80
2022/05/09 04:49:52;;;;;;;11.17;6.67;;;;;;;15.51;45.28;95052.13;4795267;29;20665;-80
2022/05/09 04:52:17;;;;;;;12.40;6.10;;;;;;;15.54;45.71;95051.69;4797841;30;20460;-80
2022/05/09 04:54:43;;;;;;;7.70;6.90;;;;;;;15.96;44.62;95054.63;4784214;30;20201;-79
2022/05/09 04:57:08;;;;;;;6.87;6.27;;;;;;;16.33;43.62;95044.06;4784195;30;20189;-80
2022/05/09 04:59:34;;;;;;;10.50;6.73;;;;;;;16.07;43.95;95051.25;4800974;29;20200;-80
2022/05/09 05:02:00;;;;;;;9.20;6.80;;;;;;;16.34;44.01;95051.00;4804710;29;20228;-81
2022/05/09 05:04:26;;;;;;;8.50;6.07;;;;;;;16.34;43.37;95062.34;4800524;29;20217;-80
2022/05/09 05:06:52;;;;;;;7.63;6.87;;;;;;;16.22;43.73;95052.72;4786678;29;20222;-81
2022/05/09 05:09:17;;;;;;;7.40;6.60;;;;;;;15.86;44.61;95056.94;4767268;30;20217;-80
2022/05/09 05:11:43;;;;;;;10.63;6.53;;;;;;;16.44;42.86;95055.75;4784466;30;20431;-80
2022/05/09 05:14:08;;;;;;;6.83;6.13;;;;;;;16.40;43.02;95050.91;4782132;29;20305;-80
2022/05/09 05:23:13;;;;;;;9.97;5.87;;;;;;;16.81;41.93;95051.25;4706166;30;20438;-80
2022/05/09 05:25:40;;;;;;;9.20;6.70;;;;;;;16.76;42.47;95051.09;4694299;30;20510;-79
2022/05/09 05:28:07;;;;;;;10.27;6.53;;;;;;;17.23;41.41;95053.97;4770270;30;20971;-79
2022/05/09 05:30:32;;;;;;;8.43;6.07;;;;;;;17.62;40.60;95056.22;4790438;29;20447;-81
2022/05/09 05:32:58;;;;;;;11.60;7.47;;;;;;;17.28;41.43;95054.09;4799639;29;20438;-81
2022/05/09 05:35:25;;;;;;;10.90;6.90;;;;;;;17.17;41.34;95055.66;4800945;30;20611;-81
2022/05/09 05:37:51;;;;;;;42.40;8.43;;;;;;;16.08;43.63;95055.50;4784188;30;20214;-80
2022/05/09 05:40:20;;;;;;;26.60;9.37;;;;;;;17.59;40.77;95054.84;4794131;29;20490;-81
2022/05/09 05:42:47;;;;;;;16.80;9.70;;;;;;;17.98;39.85;95059.75;4800804;29;20428;-81
2022/05/09 05:45:18;;;;;;;19.43;8.10;;;;;;;17.76;40.93;95050.50;4800036;29;20604;-82
2022/05/09 05:47:43;;;;;;;10.57;7.70;;;;;;;17.89;39.88;95061.91;4799998;30;20931;-80
2022/05/09 05:50:12;;;;;;;12.20;7.63;;;;;;;18.31;39.88;95064.47;4784630;30;20442;-81
2022/05/09 05:52:38;;;;;;;7.60;6.47;;;;;;;18.72;38.68;95060.81;4788642;29;20252;-81
2022/05/09 05:55:04;;;;;;;7.83;7.10;;;;;;;18.65;38.91;95056.69;4803157;29;20449;-82
2022/05/09 05:57:32;;;;;;;8.53;7.73;;;;;;;18.65;38.58;95060.13;4790955;30;20202;-81
2022/05/09 06:00:00;;;;;;;64.37;16.83;;;;;;;17.95;39.82;95061.03;4795013;30;20467;-81
2022/05/09 06:02:26;;;;;;;12.57;8.77;;;;;;;18.36;38.74;95059.25;4782929;30;20435;-81
2022/05/09 06:04:53;;;;;;;25.90;7.50;;;;;;;18.74;38.26;95055.25;4775352;30;20452;-81
2022/05/09 06:07:20;;;;;;;17.83;8.80;;;;;;;19.11;37.45;95060.25;4795192;29;20532;-81
2022/05/09 06:09:46;;;;;;;9.43;6.80;;;;;;;19.44;36.59;95061.34;4799596;29;20451;-79
2022/05/09 06:12:14;;;;;;;10.53;7.60;;;;;;;18.80;37.94;95064.13;4800023;30;20948;-81
2022/05/09 06:14:40;;;;;;;12.13;7.33;;;;;;;19.58;36.67;95056.53;4799544;29;20962;-82
2022/05/09 06:17:10;;;;;;;18.83;7.50;;;;;;;19.99;36.21;95055.34;4771642;30;20585;-81
2022/05/09 06:20:27;;;;;;;10.00;6.73;;;;;;;19.56;36.18;95059.44;4800241;29;20443;-81
2022/05/09 06:22:56;;;;;;;11.90;8.13;;;;;;;20.07;35.66;95056.78;4795309;29;20488;-81
2022/05/09 06:25:23;;;;;;;14.53;8.20;;;;;;;20.35;35.28;95058.53;4784757;30;20459;-81
2022/05/09 06:27:48;;;;;;;8.60;7.23;;;;;;;20.52;34.62;95055.03;4783443;30;20562;-81
2022/05/09 06:31:21;;;;;;;12.47;10.87;;;;;;;21.13;33.39;95053.09;4798520;30;20457;-81
2022/05/09 06:33:46;;;;;;;14.23;9.57;;;;;;;21.45;33.38;95052.38;4757113;30;20534;-85
2022/05/09 06:36:12;;;;;;;115.90;16.93;;;;;;;21.28;35.67;95055.09;4784560;30;20423;-82
2022/05/09 06:38:37;;;;;;;17.20;9.17;;;;;;;21.64;34.60;95050.97;4787169;30;20220;-82
2022/05/09 06:41:03;;;;;;;100.70;15.33;;;;;;;22.00;35.02;95059.22;4797123;29;20249;-87
2022/05/09 06:43:30;;;;;;;59.93;12.43;;;;;;;22.39;34.46;95058.16;4822617;29;20215;-86
2022/05/09 06:46:00;;;;;;;59.20;12.17;;;;;;;22.35;34.22;95055.22;4821971;29;20823;-84
2022/05/09 06:48:25;;;;;;;15.57;8.90;;;;;;;22.26;32.77;95053.28;4804247;29;20461;-83
2022/05/09 06:50:50;;;;;;;12.97;8.63;;;;;;;22.55;31.67;95059.03;4829016;29;20933;-83
2022/05/09 06:53:16;;;;;;;14.30;8.27;;;;;;;22.20;32.75;95055.09;4806944;29;20230;-86
2022/05/09 06:55:42;;;;;;;10.50;7.20;;;;;;;21.47;33.72;95044.94;4827474;29;20189;-86
2022/05/09 06:58:31;;;;;;;11.50;8.13;;;;;;;22.16;33.52;95062.00;4828178;29;20199;-86
2022/05/09 07:00:57;;;;;;;12.20;8.60;;;;;;;21.75;33.24;95051.03;4812499;29;20308;-85
2022/05/09 07:03:23;;;;;;;10.83;9.43;;;;;;;21.56;34.19;95048.75;4814665;29;20494;-85
2022/05/09 07:05:51;;;;;;;10.37;8.43;;;;;;;21.97;33.50;95054.41;4813520;29;20553;-85
2022/05/09 07:08:18;;;;;;;21.73;9.20;;;;;;;21.95;34.26;95047.72;4814578;29;20437;-85
2022/05/09 07:14:07;;;;;;;11.70;10.37;;;;;;;22.27;33.90;95045.03;4833863;29;20441;-86
2022/05/09 07:16:32;;;;;;;8.00;7.40;;;;;;;22.71;31.88;95038.56;4805913;29;20426;-86
2022/05/09 07:19:03;;;;;;;8.63;7.43;;;;;;;22.56;32.22;95044.66;4822949;29;20442;-85
2022/05/09 07:21:29;;;;;;;11.70;8.90;;;;;;;22.64;32.47;95046.03;4822245;29;20223;-87
2022/05/09 07:23:55;;;;;;;11.10;9.53;;;;;;;21.85;33.92;95043.13;4805636;29;20830;-85
2022/05/09 07:26:20;;;;;;;10.77;9.23;;;;;;;23.32;31.72;95041.44;4821287;29;20533;-86
2022/05/09 07:28:48;;;;;;;12.63;7.90;;;;;;;23.40;31.91;95048.13;4805072;29;20209;-86
2022/05/09 07:31:14;;;;;;;11.13;8.80;;;;;;;23.54;31.37;95033.19;4804722;29;20261;-85
2022/05/09 07:33:40;;;;;;;8.17;7.20;;;;;;;23.13;31.12;95043.03;4803174;29;20527;-85
2022/05/09 07:36:05;;;;;;;7.37;6.67;;;;;;;22.02;32.60;95041.13;4818063;29;20196;-86
2022/05/09 07:39:02;;;;;;;7.50;6.80;;;;;;;22.87;31.95;95042.91;4804424;29;20243;-86
2022/05/09 07:41:28;;;;;;;8.40;5.80;;;;;;;23.74;30.85;95037.75;4805218;29;20252;-85
2022/05/09 07:44:31;;;;;;;5.70;5.20;;;;;;;23.53;30.39;95047.63;4787814;30;20452;-86
2022/05/09 07:47:06;;;;;;;5.73;5.20;;;;;;;23.89;29.40;95038.84;4801427;29;20459;-86
2022/05/09 07:49:45;;;;;;;;;;;;;;;;;;;;;
2022/05/09 07:56:07;;;;;;;9.30;5.17;;;;;;;24.48;28.97;95045.44;4796616;29;20576;-85
2022/05/09 07:58:35;;;;;;;6.93;5.00;;;;;;;23.92;29.50;95036.44;4800502;30;20447;-84
2022/05/09 08:01:16;;;;;;;7.13;6.17;;;;;;;23.67;29.62;95044.41;4788184;29;20441;-83
2022/05/09 08:10:55;;;;;;;4.90;4.60;;;;;;;24.05;30.02;95042.28;4744134;30;20442;-85
2022/05/09 08:13:20;;;;;;;4.33;3.90;;;;;;;24.11;29.39;95041.22;4747540;30;20445;-85
2022/05/09 08:15:47;;;;;;;6.57;5.00;;;;;;;24.70;28.19;95037.88;4773595;30;20525;-84
2022/05/09 08:18:13;;;;;;;3.13;2.87;;;;;;;24.72;25.73;95041.09;4792551;29;20265;-85
2022/05/09 08:20:42;;;;;;;3.20;2.90;;;;;;;24.21;26.83;95041.22;4786816;30;20443;-85
2022/05/09 08:23:11;;;;;;;4.20;3.80;;;;;;;24.16;27.03;95035.84;4792061;30;20453;-84
2022/05/09 08:25:39;;;;;;;4.10;3.20;;;;;;;25.37;25.15;95032.22;4786459;30;20479;-85
2022/05/09 08:28:07;;;;;;;4.97;3.10;;;;;;;25.45;24.20;95031.63;4791306;30;20473;-84
2022/05/09 08:30:34;;;;;;;6.73;2.83;;;;;;;25.24;23.99;95035.50;4786055;30;20451;-83
2022/05/09 08:33:01;;;;;;;3.63;2.70;;;;;;;25.64;23.67;95036.31;4801789;29;20488;-85
2022/05/09 08:35:27;;;;;;;4.57;3.10;;;;;;;25.15;23.86;95037.94;4785478;30;20446;-85
2022/05/09 08:37:53;;;;;;;7.60;3.10;;;;;;;24.03;25.00;95034.53;4781803;29;20424;-85
2022/05/09 08:40:30;;;;;;;15.03;4.87;;;;;;;24.70;24.54;95037.88;4802153;29;20491;-85
2022/05/09 08:43:14;;;;;;;6.13;3.17;;;;;;;24.69;24.54;95036.28;4789617;29;20236;-84
2022/05/09 08:45:47;;;;;;;3.33;2.90;;;;;;;24.26;24.85;95033.16;4785497;30;20467;-84
2022/05/09 08:48:39;;;;;;;3.70;3.37;;;;;;;24.44;25.52;95031.78;4784784;30;20450;-85
2022/05/09 08:51:19;;;;;;;4.23;2.80;;;;;;;25.11;25.20;95032.31;4795484;30;20434;-85
2022/05/09 08:53:49;;;;;;;5.63;3.17;;;;;;;25.69;24.49;95033.59;4783833;30;20444;-85
2022/05/09 08:56:16;;;;;;;8.83;3.70;;;;;;;25.80;24.39;95029.75;4785704;29;20427;-85
2022/05/09 08:58:51;;;;;;;3.30;3.00;;;;;;;27.11;22.60;95032.44;4786645;30;20431;-86
2022/05/09 09:01:42;;;;;;;4.93;3.00;;;;;;;26.90;23.54;95026.53;4784917;30;20431;-86
2022/05/09 09:04:21;;;;;;;3.27;2.70;;;;;;;26.47;24.31;95026.47;4793854;30;20447;-85
2022/05/09 09:07:16;;;;;;;3.93;3.60;;;;;;;26.80;23.75;95026.63;4800767;29;20463;-86
2022/05/09 09:10:11;;;;;;;4.30;3.67;;;;;;;27.08;23.27;95028.41;4785159;29;20742;-85
2022/05/09 09:12:43;;;;;;;3.30;2.80;;;;;;;26.32;23.69;95030.09;4744299;30;20439;-86
2022/05/09 09:15:45;;;;;;;5.17;3.53;;;;;;;25.54;24.40;95025.69;4774928;30;20440;-84
2022/05/09 09:18:29;;;;;;;3.90;2.30;;;;;;;26.92;21.17;95021.66;4787579;29;20495;-84
2022/05/09 09:21:08;;;;;;;2.83;2.53;;;;;;;26.53;22.10;95028.00;4774291;30;20440;-85
2022/05/09 09:24:07;;;;;;;4.50;2.93;;;;;;;27.49;20.87;95026.25;4802257;29;20487;-85
2022/05/09 09:26:41;;;;;;;2.70;2.60;;;;;;;26.81;20.54;95020.19;4786256;30;20489;-85
2022/05/09 09:29:13;;;;;;;3.10;2.63;;;;;;;26.45;21.39;95020.59;4791026;30;20451;-85
2022/05/09 09:31:46;;;;;;;4.63;2.57;;;;;;;27.82;19.31;95005.56;4811127;29;20415;-84
2022/05/09 09:34:34;;;;;;;3.00;2.57;;;;;;;28.39;19.75;95005.41;4795319;30;20920;-84
2022/05/09 09:37:35;;;;;;;2.70;2.50;;;;;;;27.87;19.73;95004.69;4793006;29;20822;-86
2022/05/09 09:40:06;;;;;;;2.40;2.20;;;;;;;28.06;18.92;95002.78;4788485;29;20488;-85
2022/05/09 09:42:33;;;;;;;3.80;2.00;;;;;;;26.72;18.92;95008.47;4792021;30;20443;-85
2022/05/09 09:45:00;;;;;;;2.13;1.73;;;;;;;26.76;18.78;95007.59;4781749;30;20452;-85
2022/05/09 09:47:28;;;;;;;2.37;2.17;;;;;;;27.49;17.85;95004.75;4783232;29;20467;-85
2022/05/09 09:50:25;;;;;;;6.07;2.50;;;;;;;26.98;19.11;95001.69;4785203;30;20449;-85
2022/05/09 09:52:56;;;;;;;5.90;2.73;;;;;;;27.85;17.34;94994.25;4784236;29;20428;-86
2022/05/09 09:55:32;;;;;;;5.07;2.30;;;;;;;27.62;17.88;95004.00;4785059;30;20443;-86
2022/05/09 09:58:17;;;;;;;2.70;2.23;;;;;;;27.99;16.45;94997.78;4788601;30;20432;-85
2022/05/09 10:00:43;;;;;;;2.43;2.23;;;;;;;27.05;17.26;95004.81;4800799;29;20545;-86
2022/05/09 10:03:21;;;;;;;5.30;1.93;;;;;;;27.73;16.95;95000.06;4802665;29;20438;-85
2022/05/09 10:05:49;;;;;;;5.70;2.97;;;;;;;28.42;16.45;94996.75;4797319;29;20229;-84
2022/05/09 10:08:28;;;;;;;7.10;2.20;;;;;;;27.88;16.04;94990.16;4792248;30;20955;-85
2022/05/09 10:11:20;;;;;;;7.70;2.07;;;;;;;27.78;16.43;95007.25;4779424;29;20436;-86
2022/05/09 10:13:54;;;;;;;2.07;1.83;;;;;;;28.22;15.34;94996.00;4782404;29;20431;-85
2022/05/09 10:16:35;;;;;;;4.97;1.67;;;;;;;28.04;15.78;95000.38;4803089;29;20809;-86
2022/05/09 10:19:04;;;;;;;29.60;3.93;;;;;;;27.57;15.47;94998.72;4803311;29;20447;-85
2022/05/09 10:27:28;;;;;;;2.30;1.83;;;;;;;28.67;15.70;94994.66;4802835;29;20465;-87
2022/05/09 10:30:01;;;;;;;2.10;1.53;;;;;;;29.20;16.11;94992.19;4801815;29;20504;-86
2022/05/09 10:32:41;;;;;;;2.83;1.57;;;;;;;28.92;15.87;94991.44;4807578;29;20419;-86
2022/05/09 10:35:19;;;;;;;1.67;1.57;;;;;;;28.96;15.42;94992.41;4791204;29;20633;-86
2022/05/09 10:38:13;;;;;;;3.27;2.67;;;;;;;28.68;16.20;94993.56;4805667;29;20410;-85
2022/05/09 10:40:58;;;;;;;5.23;2.30;;;;;;;28.57;16.44;94990.25;4784631;30;20588;-86
2022/05/09 10:43:54;;;;;;;4.40;1.97;;;;;;;29.50;15.64;94989.91;4792977;29;20471;-85
2022/05/09 10:46:25;;;;;;;2.60;2.40;;;;;;;28.97;15.69;94977.84;4769246;30;20560;-85
2022/05/09 10:49:03;;;;;;;1.97;1.73;;;;;;;28.76;15.89;94982.88;4769592;30;20448;-86
2022/05/09 10:51:39;;;;;;;7.03;1.60;;;;;;;28.49;15.52;94983.66;4785073;30;20433;-87
2022/05/09 10:54:30;;;;;;;1.40;1.30;;;;;;;28.32;15.55;94978.06;4784570;30;20444;-86
2022/05/09 10:57:14;;;;;;;3.70;2.30;;;;;;;28.24;16.37;94966.91;4798397;29;20443;-86
2022/05/09 10:59:42;;;;;;;2.57;1.80;;;;;;;29.10;15.31;94965.44;4797981;30;20450;-85
2022/05/09 11:02:31;;;;;;;3.03;1.60;;;;;;;29.16;14.85;94976.94;4787373;30;20427;-85
2022/05/09 11:04:56;;;;;;;1.33;1.27;;;;;;;28.59;13.71;94967.34;4786895;29;20439;-85
2022/05/09 11:07:31;;;;;;;3.53;1.83;;;;;;;27.96;14.85;94966.06;4772010;30;20452;-85
2022/05/09 11:10:10;;;;;;;4.00;2.00;;;;;;;29.26;14.92;94965.91;4785493;29;20232;-84
2022/05/09 11:12:53;;;;;;;3.03;1.83;;;;;;;29.41;15.03;94961.28;4785519;30;20435;-84
2022/05/09 11:15:40;;;;;;;4.10;1.60;;;;;;;30.00;13.44;94961.97;4783775;30;20446;-86
2022/05/09 11:18:43;;;;;;;3.83;1.57;;;;;;;29.39;14.87;94962.38;4783198;30;20472;-86
2022/05/09 11:21:30;;;;;;;3.50;1.50;;;;;;;29.49;14.82;94952.44;4771970;30;20429;-86
2022/05/09 11:24:39;;;;;;;1.60;1.50;;;;;;;29.58;13.39;94956.78;4795014;29;20446;-86
2022/05/09 11:27:14;;;;;;;3.03;1.10;;;;;;;28.12;14.34;94963.91;4755458;30;20488;-85
2022/05/09 11:30:13;;;;;;;2.90;1.37;;;;;;;26.96;15.87;94955.50;4769406;30;20447;-85
2022/05/09 11:32:43;;;;;;;5.90;1.80;;;;;;;28.40;14.95;94953.13;4785326;29;20459;-84
2022/05/09 11:35:35;;;;;;;2.90;1.60;;;;;;;29.48;14.46;94948.97;4785539;30;20432;-85
2022/05/09 11:38:38;;;;;;;1.53;1.43;;;;;;;30.46;13.26;94941.84;4769313;30;20462;-84
2022/05/09 11:41:20;;;;;;;1.47;1.37;;;;;;;29.29;13.80;94941.06;4771146;30;20485;-85
2022/05/09 11:43:45;;;;;;;1.30;1.20;;;;;;;27.48;15.21;94944.03;4785932;30;20496;-85
2022/05/09 11:46:39;;;;;;;1.97;1.40;;;;;;;26.31;16.43;94939.94;4798643;29;20467;-84
2022/05/09 11:49:37;;;;;;;1.90;1.23;;;;;;;26.39;16.67;94933.94;4803283;30;20288;-86
2022/05/09 11:52:09;;;;;;;2.30;1.60;;;;;;;28.32;15.84;94935.78;4801966;30;20412;-85
2022/05/09 11:54:42;;;;;;;3.30;1.77;;;;;;;28.80;15.60;94937.28;4784184;30;20445;-85
2022/05/09 11:57:19;;;;;;;3.60;1.77;;;;;;;29.66;15.12;94935.56;4784212;30;20490;-85
2022/05/09 11:59:54;;;;;;;2.10;1.80;;;;;;;30.03;14.96;94925.47;4783404;29;20611;-84
2022/05/09 12:02:49;;;;;;;2.07;1.40;;;;;;;29.61;14.29;94925.69;4771600;30;20490;-85
2022/05/09 12:05:26;;;;;;;2.90;1.80;;;;;;;30.86;13.48;94922.84;4785791;30;20981;-85
2022/05/09 12:08:02;;;;;;;2.50;1.37;;;;;;;30.75;12.72;94921.56;4794876;30;20555;-86
2022/05/09 12:10:28;;;;;;;2.97;1.47;;;;;;;30.70;13.01;94924.44;4801192;30;20460;-85
2022/05/09 12:13:04;;;;;;;7.10;1.40;;;;;;;30.97;12.84;94925.28;4802580;30;20502;-85
2022/05/09 12:15:29;;;;;;;2.17;1.30;;;;;;;31.16;12.76;94917.66;4783145;30;20522;-87
2022/05/09 12:17:54;;;;;;;1.73;1.50;;;;;;;31.92;12.15;94911.63;4784374;30;20955;-84
2022/05/09 12:20:29;;;;;;;7.27;2.40;;;;;;;32.83;12.17;94911.38;4772923;30;20389;-84
2022/05/09 12:23:04;;;;;;;2.20;1.70;;;;;;;31.60;12.66;94915.72;4785783;30;20201;-84
2022/05/09 12:25:40;;;;;;;2.40;1.10;;;;;;;30.91;12.32;94909.22;4783460;29;20532;-85
2022/05/09 12:28:18;;;;;;;1.90;1.80;;;;;;;31.64;12.08;94905.81;4768280;30;20500;-84
2022/05/09 12:30:49;;;;;;;2.60;1.30;;;;;;;31.64;11.26;94905.81;4778868;30;20459;-85
2022/05/09 12:33:14;;;;;;;2.70;1.00;;;;;;;32.57;10.28;94903.41;4768433;30;20468;-85